Terminal Aerodrome Forecast
Issued by NWS Louisville, KY

Home | Current Version | Previous Version | Text Only | Print | Product List | Glossary On
Versions: 1 2 3 4 5 6 7 8 9 10 11 12 13 14 15 16 17 18
000
FTUS43 KLMK 260500
TAFLEX
TAF
KLEX 260520Z 2606/2706 VRB03KT P6SM BKN130
     FM261500 23010G14KT P6SM SCT040 BKN090
     FM270100 21008KT P6SM BKN040 OVC180=

USA.gov is the U.S. government's official web portal to all federal, state and local government web resources and services.